sensor_id;sensor_type;location;lat;lon;timestamp;temperature;humidity
59303;DHT22;45074;52.764;6.896;2023-07-08T00:03:17;18.80;99.90
59303;DHT22;45074;52.764;6.896;2023-07-08T00:05:44;18.70;99.90
59303;DHT22;45074;52.764;6.896;2023-07-08T00:08:14;18.70;99.90
59303;DHT22;45074;52.764;6.896;2023-07-08T00:13:08;18.60;99.90
59303;DHT22;45074;52.764;6.896;2023-07-08T00:15:35;18.60;99.90
59303;DHT22;45074;52.764;6.896;2023-07-08T00:20:37;18.50;99.90
59303;DHT22;45074;52.764;6.896;2023-07-08T00:25:31;18.50;99.90
59303;DHT22;45074;52.764;6.896;2023-07-08T00:38:04;18.20;99.90
59303;DHT22;45074;52.764;6.896;2023-07-08T00:43:05;18.20;99.90
59303;DHT22;45074;52.764;6.896;2023-07-08T00:45:42;18.00;99.90
59303;DHT22;45074;52.764;6.896;2023-07-08T00:55:57;18.20;99.90
59303;DHT22;45074;52.764;6.896;2023-07-08T00:58:32;18.10;99.90
59303;DHT22;45074;52.764;6.896;2023-07-08T01:00:59;18.10;99.90
59303;DHT22;45074;52.764;6.896;2023-07-08T01:03:27;18.10;99.90
59303;DHT22;45074;52.764;6.896;2023-07-08T01:05:57;18.00;99.90
59303;DHT22;45074;52.764;6.896;2023-07-08T01:08:26;18.00;99.90
59303;DHT22;45074;52.764;6.896;2023-07-08T01:11:00;17.90;99.90
59303;DHT22;45074;52.764;6.896;2023-07-08T01:13:33;17.90;99.90
59303;DHT22;45074;52.764;6.896;2023-07-08T01:30:44;17.80;99.90
59303;DHT22;45074;52.764;6.896;2023-07-08T01:33:17;17.70;99.90
59303;DHT22;45074;52.764;6.896;2023-07-08T01:35:45;17.70;99.90
59303;DHT22;45074;52.764;6.896;2023-07-08T01:38:11;17.70;99.90
59303;DHT22;45074;52.764;6.896;2023-07-08T01:40:49;17.70;99.90
59303;DHT22;45074;52.764;6.896;2023-07-08T01:45:41;17.60;99.90
59303;DHT22;45074;52.764;6.896;2023-07-08T01:48:13;17.60;99.90
59303;DHT22;45074;52.764;6.896;2023-07-08T01:50:44;17.60;99.90
59303;DHT22;45074;52.764;6.896;2023-07-08T01:53:15;17.60;99.90
59303;DHT22;45074;52.764;6.896;2023-07-08T02:15:09;17.70;99.90
59303;DHT22;45074;52.764;6.896;2023-07-08T02:37:04;17.20;99.90
59303;DHT22;45074;52.764;6.896;2023-07-08T02:39:30;17.70;99.90
59303;DHT22;45074;52.764;6.896;2023-07-08T03:50:26;16.70;99.90
59303;DHT22;45074;52.764;6.896;2023-07-08T03:52:53;16.70;99.90
59303;DHT22;45074;52.764;6.896;2023-07-08T03:55:20;16.70;99.90
59303;DHT22;45074;52.764;6.896;2023-07-08T04:02:39;16.70;99.90
59303;DHT22;45074;52.764;6.896;2023-07-08T04:17:18;16.70;99.90
59303;DHT22;45074;52.764;6.896;2023-07-08T04:36:47;16.60;99.90
59303;DHT22;45074;52.764;6.896;2023-07-08T04:41:40;16.80;99.90
59303;DHT22;45074;52.764;6.896;2023-07-08T04:44:10;16.90;99.90
59303;DHT22;45074;52.764;6.896;2023-07-08T04:46:48;16.90;99.90
59303;DHT22;45074;52.764;6.896;2023-07-08T04:49:17;16.90;99.90
59303;DHT22;45074;52.764;6.896;2023-07-08T04:54:09;17.00;99.90
59303;DHT22;45074;52.764;6.896;2023-07-08T04:56:46;17.10;99.90
59303;DHT22;45074;52.764;6.896;2023-07-08T04:59:14;17.10;99.90
59303;DHT22;45074;52.764;6.896;2023-07-08T05:06:34;17.20;99.90
59303;DHT22;45074;52.764;6.896;2023-07-08T05:26:04;17.80;99.90
59303;DHT22;45074;52.764;6.896;2023-07-08T05:33:24;18.10;99.90
59303;DHT22;45074;52.764;6.896;2023-07-08T05:35:50;18.80;99.90
59303;DHT22;45074;52.764;6.896;2023-07-08T05:45:34;18.30;99.90
59303;DHT22;45074;52.764;6.896;2023-07-08T05:48:01;18.70;99.90
59303;DHT22;45074;52.764;6.896;2023-07-08T05:50:27;18.90;99.90
59303;DHT22;45074;52.764;6.896;2023-07-08T05:52:53;19.10;99.90
59303;DHT22;45074;52.764;6.896;2023-07-08T05:55:18;17.80;99.90
59303;DHT22;45074;52.764;6.896;2023-07-08T05:57:44;19.30;99.90
59303;DHT22;45074;52.764;6.896;2023-07-08T06:00:10;19.10;99.90
59303;DHT22;45074;52.764;6.896;2023-07-08T06:17:17;20.70;99.90
59303;DHT22;45074;52.764;6.896;2023-07-08T06:51:25;22.30;99.90
59303;DHT22;45074;52.764;6.896;2023-07-08T07:01:10;23.10;99.90
59303;DHT22;45074;52.764;6.896;2023-07-08T07:03:35;23.00;99.90
59303;DHT22;45074;52.764;6.896;2023-07-08T07:06:01;23.10;99.90
59303;DHT22;45074;52.764;6.896;2023-07-08T07:08:27;23.20;99.90
59303;DHT22;45074;52.764;6.896;2023-07-08T07:10:52;23.20;99.90
59303;DHT22;45074;52.764;6.896;2023-07-08T07:13:18;23.40;99.90
59303;DHT22;45074;52.764;6.896;2023-07-08T07:15:44;22.50;99.90
59303;DHT22;45074;52.764;6.896;2023-07-08T07:18:09;23.80;99.90
59303;DHT22;45074;52.764;6.896;2023-07-08T07:20:37;23.80;99.90
59303;DHT22;45074;52.764;6.896;2023-07-08T07:23:03;24.00;99.90
59303;DHT22;45074;52.764;6.896;2023-07-08T07:27:55;24.90;99.90
59303;DHT22;45074;52.764;6.896;2023-07-08T07:32:46;24.60;99.90
59303;DHT22;45074;52.764;6.896;2023-07-08T20:53:53;26.70;99.90
59303;DHT22;45074;52.764;6.896;2023-07-08T20:56:24;26.60;99.90
59303;DHT22;45074;52.764;6.896;2023-07-08T21:06:24;26.20;99.90
59303;DHT22;45074;52.764;6.896;2023-07-08T21:08:51;26.20;99.90
59303;DHT22;45074;52.764;6.896;2023-07-08T21:16:22;26.00;99.90
59303;DHT22;45074;52.764;6.896;2023-07-08T21:18:49;26.00;99.90
59303;DHT22;45074;52.764;6.896;2023-07-08T21:26:29;25.70;99.90
59303;DHT22;45074;52.764;6.896;2023-07-08T21:28:57;25.80;99.90
59303;DHT22;45074;52.764;6.896;2023-07-08T21:36:25;25.50;99.90
59303;DHT22;45074;52.764;6.896;2023-07-08T21:38:53;25.30;99.90
59303;DHT22;45074;52.764;6.896;2023-07-08T21:41:21;25.50;99.90
59303;DHT22;45074;52.764;6.896;2023-07-08T21:43:46;25.50;99.90
59303;DHT22;45074;52.764;6.896;2023-07-08T21:46:12;25.50;99.90
59303;DHT22;45074;52.764;6.896;2023-07-08T21:48:38;25.40;99.90
59303;DHT22;45074;52.764;6.896;2023-07-08T21:53:47;25.40;99.90
59303;DHT22;45074;52.764;6.896;2023-07-08T21:56:14;25.60;99.90
59303;DHT22;45074;52.764;6.896;2023-07-08T21:58:40;25.30;99.90
59303;DHT22;45074;52.764;6.896;2023-07-08T22:01:16;25.30;99.90
59303;DHT22;45074;52.764;6.896;2023-07-08T22:03:42;25.20;99.90
59303;DHT22;45074;52.764;6.896;2023-07-08T22:06:08;25.20;99.90
59303;DHT22;45074;52.764;6.896;2023-07-08T22:08:33;25.30;99.90
59303;DHT22;45074;52.764;6.896;2023-07-08T22:10:59;25.50;99.90
59303;DHT22;45074;52.764;6.896;2023-07-08T22:13:30;25.30;99.90
59303;DHT22;45074;52.764;6.896;2023-07-08T22:16:03;25.00;99.90
59303;DHT22;45074;52.764;6.896;2023-07-08T22:18:29;25.00;99.90
59303;DHT22;45074;52.764;6.896;2023-07-08T22:21:00;25.20;99.90
59303;DHT22;45074;52.764;6.896;2023-07-08T22:23:28;24.90;99.90
59303;DHT22;45074;52.764;6.896;2023-07-08T22:25:56;24.90;99.90
59303;DHT22;45074;52.764;6.896;2023-07-08T22:28:22;24.80;99.90
59303;DHT22;45074;52.764;6.896;2023-07-08T22:30:48;24.70;99.90
59303;DHT22;45074;52.764;6.896;2023-07-08T22:33:15;24.70;99.90
59303;DHT22;45074;52.764;6.896;2023-07-08T22:35:41;24.70;99.90
59303;DHT22;45074;52.764;6.896;2023-07-08T22:38:08;24.60;99.90
59303;DHT22;45074;52.764;6.896;2023-07-08T22:40:39;24.60;99.90
59303;DHT22;45074;52.764;6.896;2023-07-08T22:43:07;24.50;99.90
59303;DHT22;45074;52.764;6.896;2023-07-08T22:45:33;24.50;99.90
59303;DHT22;45074;52.764;6.896;2023-07-08T22:47:58;24.40;99.90
59303;DHT22;45074;52.764;6.896;2023-07-08T22:50:26;24.40;99.90
59303;DHT22;45074;52.764;6.896;2023-07-08T22:52:54;24.70;99.90
59303;DHT22;45074;52.764;6.896;2023-07-08T22:55:30;24.40;99.90
59303;DHT22;45074;52.764;6.896;2023-07-08T22:58:00;24.30;99.90
59303;DHT22;45074;52.764;6.896;2023-07-08T23:00:28;24.20;99.90
59303;DHT22;45074;52.764;6.896;2023-07-08T23:02:54;24.30;99.90
59303;DHT22;45074;52.764;6.896;2023-07-08T23:05:38;24.20;99.90
59303;DHT22;45074;52.764;6.896;2023-07-08T23:08:04;24.20;99.90
59303;DHT22;45074;52.764;6.896;2023-07-08T23:10:30;24.10;99.90
59303;DHT22;45074;52.764;6.896;2023-07-08T23:12:56;24.10;99.90
59303;DHT22;45074;52.764;6.896;2023-07-08T23:15:21;24.10;99.90
59303;DHT22;45074;52.764;6.896;2023-07-08T23:17:47;23.90;99.90
59303;DHT22;45074;52.764;6.896;2023-07-08T23:20:18;24.80;99.90
59303;DHT22;45074;52.764;6.896;2023-07-08T23:22:45;24.00;99.90
59303;DHT22;45074;52.764;6.896;2023-07-08T23:25:12;24.20;99.90
59303;DHT22;45074;52.764;6.896;2023-07-08T23:27:38;23.90;99.90
59303;DHT22;45074;52.764;6.896;2023-07-08T23:30:06;24.10;99.90
59303;DHT22;45074;52.764;6.896;2023-07-08T23:32:36;23.90;99.90
59303;DHT22;45074;52.764;6.896;2023-07-08T23:35:02;24.00;99.90
59303;DHT22;45074;52.764;6.896;2023-07-08T23:37:28;23.80;99.90
59303;DHT22;45074;52.764;6.896;2023-07-08T23:39:56;23.80;99.90
59303;DHT22;45074;52.764;6.896;2023-07-08T23:42:21;23.70;99.90
59303;DHT22;45074;52.764;6.896;2023-07-08T23:44:48;23.80;99.90
59303;DHT22;45074;52.764;6.896;2023-07-08T23:47:25;23.80;99.90
59303;DHT22;45074;52.764;6.896;2023-07-08T23:49:51;23.60;99.90
59303;DHT22;45074;52.764;6.896;2023-07-08T23:52:17;23.60;99.90
59303;DHT22;45074;52.764;6.896;2023-07-08T23:54:44;23.70;99.90
59303;DHT22;45074;52.764;6.896;2023-07-08T23:57:21;23.50;99.90
59303;DHT22;45074;52.764;6.896;2023-07-08T23:59:52;23.50;99.90
